Time;durP1;ratioP1;P1;durP2;ratioP2;P2;SDS_P1;SDS_P2;PMS_P1;PMS_P2;Temp;Humidity;BMP_temperature;BMP_pressure;BME280_temperature;BME280_humidity;BME280_pressure;Samples;Min_cycle;Max_cycle;Signal;HPM_P1;HPM_P2
2022/03/13 00:01:34;;;;;;;30.90;25.75;;;6.50;99.90;;;;;;4941004;28;89401;-33
2022/03/13 00:04:01;;;;;;;29.25;24.85;;;6.60;99.90;;;;;;4959809;28;90099;-35
2022/03/13 00:06:33;;;;;;;30.33;24.60;;;6.60;99.90;;;;;;4959011;28;89451;-32
2022/03/13 00:08:58;;;;;;;27.33;24.15;;;6.60;99.90;;;;;;4960112;28;90493;-34
2022/03/13 00:11:25;;;;;;;28.17;23.85;;;6.60;99.90;;;;;;4980027;23;89621;-33
2022/03/13 00:13:53;;;;;;;27.85;24.67;;;6.60;99.90;;;;;;4939475;28;89598;-33
2022/03/13 00:16:20;;;;;;;30.80;24.85;;;6.60;99.90;;;;;;4921484;28;87984;-33
2022/03/13 00:18:47;;;;;;;31.80;25.10;;;6.50;99.90;;;;;;4939977;28;90709;-32
2022/03/13 00:21:18;;;;;;;30.77;24.75;;;6.50;99.90;;;;;;4939545;28;90311;-33
2022/03/13 00:23:45;;;;;;;32.50;23.35;;;6.50;99.90;;;;;;4939819;28;89701;-33
2022/03/13 00:26:13;;;;;;;31.50;24.55;;;6.50;99.90;;;;;;4939302;28;89111;-32
2022/03/13 00:28:39;;;;;;;34.38;24.27;;;6.50;99.90;;;;;;4939201;28;90313;-36
2022/03/13 00:31:06;;;;;;;28.65;22.90;;;6.40;99.90;;;;;;4940051;28;90454;-32
2022/03/13 00:33:33;;;;;;;31.40;24.10;;;6.40;99.90;;;;;;4941910;28;89255;-32
2022/03/13 00:35:59;;;;;;;31.23;26.35;;;6.40;99.90;;;;;;4945845;28;89827;-36
2022/03/13 00:38:25;;;;;;;31.55;26.38;;;6.40;99.90;;;;;;4945607;28;90668;-34
2022/03/13 00:40:55;;;;;;;26.58;23.83;;;6.30;99.90;;;;;;4944657;28;90968;-34
2022/03/13 00:43:22;;;;;;;30.00;26.85;;;6.30;99.90;;;;;;4945561;28;90638;-33
2022/03/13 00:45:48;;;;;;;28.63;25.38;;;6.40;99.90;;;;;;4945495;28;88290;-35
2022/03/13 00:48:14;;;;;;;27.95;24.98;;;6.40;99.90;;;;;;4946326;28;88993;-34
2022/03/13 00:50:40;;;;;;;29.85;26.15;;;6.30;99.90;;;;;;4944526;28;89626;-35
2022/03/13 00:53:06;;;;;;;32.50;26.17;;;6.30;99.90;;;;;;4945465;28;89223;-36
2022/03/13 00:55:32;;;;;;;28.85;25.80;;;6.30;99.90;;;;;;4945666;28;88559;-33
2022/03/13 00:57:58;;;;;;;31.27;24.58;;;6.30;99.90;;;;;;4945684;28;90102;-31
2022/03/13 01:02:55;;;;;;;30.77;24.45;;;6.30;99.90;;;;;;4944634;28;89685;-33
2022/03/13 01:05:26;;;;;;;32.03;26.70;;;6.30;99.90;;;;;;4945446;28;89053;-32
2022/03/13 01:07:54;;;;;;;34.00;25.45;;;6.30;99.90;;;;;;4945417;28;90287;-35
2022/03/13 01:10:20;;;;;;;28.15;22.90;;;6.40;99.90;;;;;;4927774;28;91718;-34
2022/03/13 01:12:48;;;;;;;29.67;24.58;;;6.30;99.90;;;;;;4944396;28;89693;-31
2022/03/13 01:15:15;;;;;;;28.27;23.77;;;6.30;99.90;;;;;;4945687;28;88589;-32
2022/03/13 01:17:42;;;;;;;31.85;26.42;;;6.30;99.90;;;;;;4945308;28;90731;-31
2022/03/13 01:20:21;;;;;;;32.80;25.52;;;6.30;99.90;;;;;;4945611;28;89510;-31
2022/03/13 01:22:48;;;;;;;29.35;25.55;;;6.30;99.90;;;;;;4944947;28;89849;-32
2022/03/13 01:25:13;;;;;;;33.72;25.13;;;6.30;99.90;;;;;;4944822;28;89815;-35
2022/03/13 01:27:41;;;;;;;30.65;25.63;;;6.30;99.90;;;;;;4945318;28;89266;-30
2022/03/13 01:30:08;;;;;;;31.20;25.30;;;6.30;99.90;;;;;;4945190;28;91680;-32
2022/03/13 01:32:34;;;;;;;28.30;25.23;;;6.30;99.90;;;;;;4944884;28;90669;-32
2022/03/13 01:35:00;;;;;;;31.02;25.55;;;6.30;99.90;;;;;;4945904;28;89037;-34
2022/03/13 01:37:31;;;;;;;33.05;26.42;;;6.30;99.90;;;;;;4944403;28;89509;-32
2022/03/13 01:39:59;;;;;;;30.15;26.13;;;6.30;99.90;;;;;;4945259;28;89928;-33
2022/03/13 01:42:25;;;;;;;29.45;25.83;;;6.30;99.90;;;;;;4944590;28;89742;-33
2022/03/13 01:44:51;;;;;;;27.35;24.25;;;6.30;99.90;;;;;;4943164;28;88025;-31
2022/03/13 01:47:18;;;;;;;33.58;25.08;;;6.30;99.90;;;;;;4941598;28;90361;-33
2022/03/13 01:49:46;;;;;;;29.95;24.90;;;6.30;99.90;;;;;;4923531;28;89171;-33
2022/03/13 01:52:11;;;;;;;37.22;26.65;;;6.30;99.90;;;;;;4941470;28;89637;-32
2022/03/13 01:54:39;;;;;;;32.75;27.40;;;6.30;99.90;;;;;;4941461;28;88953;-33
2022/03/13 01:57:04;;;;;;;29.98;25.05;;;6.20;99.90;;;;;;4941828;28;90535;-34
2022/03/13 01:59:30;;;;;;;30.63;25.77;;;6.20;99.90;;;;;;4941323;28;89407;-35
2022/03/13 02:01:57;;;;;;;33.03;25.33;;;6.30;99.90;;;;;;4940978;28;89433;-32
2022/03/13 02:04:27;;;;;;;29.48;25.38;;;6.30;99.90;;;;;;4941905;28;88004;-33
2022/03/13 02:06:55;;;;;;;30.00;24.80;;;6.30;99.90;;;;;;4941203;28;91687;-32
2022/03/13 02:09:21;;;;;;;28.42;25.15;;;6.30;99.90;;;;;;4941720;28;89808;-32
2022/03/13 02:11:49;;;;;;;36.72;26.00;;;6.30;99.90;;;;;;4941353;28;89779;-33
2022/03/13 02:14:17;;;;;;;30.20;24.77;;;6.30;99.90;;;;;;4942188;28;89474;-33
2022/03/13 02:16:43;;;;;;;34.25;27.70;;;6.30;99.90;;;;;;4940867;28;89944;-35
2022/03/13 02:19:09;;;;;;;30.02;24.83;;;6.30;99.90;;;;;;4922926;28;90660;-32
2022/03/13 02:21:45;;;;;;;27.85;24.42;;;6.30;99.90;;;;;;4941475;28;90596;-36
2022/03/13 02:24:23;;;;;;;30.50;25.75;;;6.30;99.90;;;;;;4940771;28;88895;-35
2022/03/13 02:27:01;;;;;;;31.38;27.08;;;6.20;99.90;;;;;;4940913;28;89832;-34
2022/03/13 02:29:27;;;;;;;30.08;25.67;;;6.20;99.90;;;;;;4923187;28;91266;-32
2022/03/13 02:31:53;;;;;;;30.80;27.40;;;6.20;99.90;;;;;;4941545;28;90044;-33
2022/03/13 02:34:20;;;;;;;33.22;26.48;;;6.20;99.90;;;;;;4941735;28;90127;-31
2022/03/13 02:36:51;;;;;;;31.83;26.88;;;6.20;99.90;;;;;;4940079;28;90326;-33
2022/03/13 02:39:17;;;;;;;30.55;27.25;;;6.20;99.90;;;;;;4941203;28;89196;-33
2022/03/13 02:41:44;;;;;;;30.23;25.65;;;6.10;99.90;;;;;;4940684;28;88866;-35
2022/03/13 02:44:12;;;;;;;31.40;25.50;;;6.10;99.90;;;;;;4941060;28;90172;-31
2022/03/13 02:46:58;;;;;;;34.88;27.35;;;6.10;99.90;;;;;;4940650;28;90151;-31
2022/03/13 02:49:27;;;;;;;30.67;26.55;;;6.10;99.90;;;;;;4940568;28;89765;-30
2022/03/13 02:51:55;;;;;;;34.40;25.67;;;6.00;99.90;;;;;;4940060;28;88313;-33
2022/03/13 02:54:21;;;;;;;31.08;25.02;;;6.00;99.90;;;;;;4941247;28;89013;-37
2022/03/13 02:56:48;;;;;;;34.88;26.38;;;6.00;99.90;;;;;;4939807;28;90040;-32
2022/03/13 02:59:14;;;;;;;30.20;25.42;;;6.00;99.90;;;;;;4940696;28;89501;-33
2022/03/13 03:01:41;;;;;;;32.47;26.63;;;6.00;99.90;;;;;;4940595;28;88370;-35
2022/03/13 03:04:06;;;;;;;32.63;25.67;;;6.00;99.90;;;;;;4941023;28;87932;-31
2022/03/13 03:06:34;;;;;;;29.83;25.17;;;6.00;99.90;;;;;;4939946;28;90158;-32
2022/03/13 03:09:03;;;;;;;28.83;25.80;;;6.00;99.90;;;;;;4940092;28;90115;-34
2022/03/13 03:11:32;;;;;;;32.60;25.33;;;6.10;99.90;;;;;;4940044;28;90437;-36
2022/03/13 03:14:00;;;;;;;28.73;23.40;;;6.00;99.90;;;;;;4940504;28;89968;-33
2022/03/13 03:16:25;;;;;;;30.85;27.50;;;6.00;99.90;;;;;;4940671;28;90411;-31
2022/03/13 03:18:51;;;;;;;28.40;24.17;;;6.00;99.90;;;;;;4939851;28;89882;-32
2022/03/13 03:21:17;;;;;;;34.95;25.85;;;5.90;99.90;;;;;;4941064;28;89753;-33
2022/03/13 03:23:42;;;;;;;30.45;24.83;;;5.90;99.90;;;;;;4939771;28;89142;-32
2022/03/13 03:26:08;;;;;;;29.83;25.70;;;5.90;99.90;;;;;;4940466;28;89263;-33
2022/03/13 03:28:34;;;;;;;30.92;23.48;;;5.80;99.90;;;;;;4940222;28;89778;-33
2022/03/13 03:31:00;;;;;;;30.00;25.15;;;5.80;99.90;;;;;;4940022;28;90006;-31
2022/03/13 03:33:27;;;;;;;29.88;26.67;;;5.80;99.90;;;;;;4940239;28;89484;-35
2022/03/13 03:35:53;;;;;;;34.17;24.52;;;5.70;99.90;;;;;;4940073;28;91299;-32
2022/03/13 03:38:18;;;;;;;31.40;24.92;;;5.70;99.90;;;;;;4939622;28;89595;-36
2022/03/13 03:40:44;;;;;;;28.75;25.45;;;5.70;99.90;;;;;;4940448;28;90102;-31
2022/03/13 03:43:10;;;;;;;37.20;26.58;;;5.70;99.90;;;;;;4940234;28;89403;-32
2022/03/13 03:45:35;;;;;;;33.80;25.77;;;5.60;99.90;;;;;;4940531;28;90480;-31
2022/03/13 03:48:01;;;;;;;32.92;25.88;;;5.60;99.90;;;;;;4939233;28;90190;-32
2022/03/13 03:50:27;;;;;;;28.63;24.83;;;5.50;99.90;;;;;;4940584;28;90337;-37
2022/03/13 03:52:55;;;;;;;28.38;25.00;;;5.50;99.90;;;;;;4939636;28;89288;-34
2022/03/13 03:55:22;;;;;;;28.23;25.02;;;5.50;99.90;;;;;;4939783;28;89883;-34
2022/03/13 03:57:47;;;;;;;28.23;24.67;;;5.40;99.90;;;;;;4921123;28;89707;-35
2022/03/13 04:00:14;;;;;;;32.70;26.02;;;5.40;99.90;;;;;;4939612;28;89874;-31
2022/03/13 04:02:40;;;;;;;29.38;26.05;;;5.40;99.90;;;;;;4939797;28;88171;-32
2022/03/13 04:05:06;;;;;;;32.13;24.75;;;5.30;99.90;;;;;;4940469;28;91188;-34
2022/03/13 04:07:32;;;;;;;28.98;24.40;;;5.30;99.90;;;;;;4939490;28;91013;-33
2022/03/13 04:09:57;;;;;;;28.00;23.90;;;5.30;99.90;;;;;;4939759;28;89885;-32
2022/03/13 04:12:25;;;;;;;28.42;24.88;;;5.20;99.90;;;;;;4939610;28;88215;-32
2022/03/13 04:14:52;;;;;;;28.23;23.45;;;5.20;99.90;;;;;;4940041;28;90555;-33
2022/03/13 04:17:17;;;;;;;28.98;24.65;;;5.20;99.90;;;;;;4939466;28;89930;-32
2022/03/13 04:19:43;;;;;;;28.75;23.02;;;5.20;99.90;;;;;;4939693;28;89714;-35
2022/03/13 04:22:09;;;;;;;36.30;23.10;;;5.10;99.90;;;;;;4938733;28;89745;-36
2022/03/13 04:24:34;;;;;;;28.92;24.02;;;5.10;99.90;;;;;;4939101;28;89995;-35
2022/03/13 04:27:00;;;;;;;28.95;25.05;;;5.20;99.90;;;;;;4921994;28;90037;-31
2022/03/13 04:29:26;;;;;;;29.42;25.10;;;5.20;99.90;;;;;;4939376;28;90048;-34
2022/03/13 04:31:53;;;;;;;28.55;25.42;;;5.20;99.90;;;;;;4939914;28;89697;-31
2022/03/13 04:34:19;;;;;;;30.30;24.45;;;5.20;99.90;;;;;;4939545;28;90717;-31
2022/03/13 04:36:45;;;;;;;29.15;23.98;;;5.20;99.90;;;;;;4938618;28;90395;-35
2022/03/13 04:39:11;;;;;;;36.13;25.05;;;5.10;99.90;;;;;;4939692;28;89988;-35
2022/03/13 04:41:38;;;;;;;29.23;23.67;;;5.10;99.90;;;;;;4939211;28;89607;-31
2022/03/13 04:44:05;;;;;;;30.55;25.15;;;5.00;99.90;;;;;;4939241;28;88848;-33
2022/03/13 04:46:31;;;;;;;28.00;24.88;;;5.00;99.90;;;;;;4939263;28;90752;-33
2022/03/13 04:48:57;;;;;;;27.02;23.08;;;4.90;99.90;;;;;;4938554;28;90615;-34
2022/03/13 04:51:23;;;;;;;32.63;24.02;;;4.90;99.90;;;;;;4938981;28;87970;-34
2022/03/13 04:53:49;;;;;;;26.63;23.02;;;4.80;99.90;;;;;;4939025;28;90820;-33
2022/03/13 04:56:14;;;;;;;27.42;24.20;;;4.70;99.90;;;;;;4938957;28;89285;-29
2022/03/13 04:58:40;;;;;;;29.08;24.15;;;4.60;99.90;;;;;;4939058;28;89610;-33
2022/03/13 05:01:06;;;;;;;28.13;22.73;;;4.60;99.90;;;;;;4939158;28;89687;-32
2022/03/13 05:03:33;;;;;;;27.50;22.58;;;4.60;99.90;;;;;;4939496;28;90419;-30
2022/03/13 05:05:59;;;;;;;32.53;24.35;;;4.50;99.90;;;;;;4938931;28;89566;-32
2022/03/13 05:08:26;;;;;;;31.40;23.48;;;4.50;99.90;;;;;;4938707;28;89256;-35
2022/03/13 05:10:52;;;;;;;33.30;25.52;;;4.40;99.90;;;;;;4938126;28;90282;-36
2022/03/13 05:13:19;;;;;;;30.38;25.02;;;4.40;99.90;;;;;;4938743;28;92509;-31
2022/03/13 05:15:46;;;;;;;28.05;23.65;;;4.40;99.90;;;;;;4938607;28;90119;-34
2022/03/13 05:18:12;;;;;;;27.50;23.38;;;4.30;99.90;;;;;;4938545;28;89626;-31
2022/03/13 05:20:39;;;;;;;34.42;26.40;;;4.30;99.90;;;;;;4940810;28;88884;-31
2022/03/13 05:23:07;;;;;;;31.23;24.27;;;4.20;99.90;;;;;;4941960;28;90268;-34
2022/03/13 05:25:37;;;;;;;31.65;25.92;;;4.30;99.90;;;;;;4941820;28;90170;-31
2022/03/13 05:28:04;;;;;;;29.08;23.70;;;4.20;99.90;;;;;;4941940;28;91084;-33
2022/03/13 05:30:30;;;;;;;30.98;23.85;;;4.30;99.90;;;;;;4942118;28;89221;-31
2022/03/13 05:32:56;;;;;;;28.58;24.50;;;4.30;99.90;;;;;;4941791;28;91467;-32
2022/03/13 05:35:22;;;;;;;25.35;21.90;;;4.30;99.90;;;;;;4941475;28;90750;-30
2022/03/13 05:37:48;;;;;;;27.63;24.20;;;4.20;99.90;;;;;;4941725;28;90514;-34
2022/03/13 05:40:15;;;;;;;31.83;25.27;;;4.20;99.90;;;;;;4941611;28;88147;-32
2022/03/13 05:42:43;;;;;;;28.15;23.40;;;4.20;99.90;;;;;;4941177;28;90041;-31
2022/03/13 05:45:13;;;;;;;29.20;23.15;;;4.20;99.90;;;;;;4942066;28;90218;-34
2022/03/13 05:47:56;;;;;;;31.42;25.92;;;4.20;99.90;;;;;;4941494;28;89746;-34
2022/03/13 05:50:23;;;;;;;28.50;24.17;;;4.30;99.90;;;;;;4941417;28;88128;-30
2022/03/13 05:52:49;;;;;;;26.90;21.87;;;4.30;99.90;;;;;;4941531;28;89635;-31
2022/03/13 05:55:17;;;;;;;27.67;24.10;;;4.30;99.90;;;;;;4942269;28;89992;-34
2022/03/13 05:57:43;;;;;;;32.03;25.08;;;4.40;99.90;;;;;;4941635;28;90920;-32
2022/03/13 06:00:11;;;;;;;30.67;22.75;;;4.40;99.90;;;;;;4941293;28;89854;-31
2022/03/13 06:02:39;;;;;;;29.55;23.77;;;4.40;99.90;;;;;;4940788;28;89065;-36
2022/03/13 06:05:06;;;;;;;28.88;23.10;;;4.40;99.90;;;;;;4941566;28;89809;-33
2022/03/13 06:07:32;;;;;;;30.52;23.88;;;4.50;99.90;;;;;;4942161;28;89559;-34
2022/03/13 06:10:02;;;;;;;35.88;24.58;;;4.50;99.90;;;;;;4940922;28;88058;-30
2022/03/13 06:12:31;;;;;;;28.45;23.83;;;4.50;99.90;;;;;;4940997;28;90835;-35
2022/03/13 06:14:58;;;;;;;26.90;24.00;;;4.50;99.90;;;;;;4940979;28;89728;-31
2022/03/13 06:17:24;;;;;;;32.47;25.55;;;4.50;99.90;;;;;;4942227;28;89384;-31
2022/03/13 06:19:50;;;;;;;33.53;24.83;;;4.50;99.90;;;;;;4941773;28;88625;-31
2022/03/13 06:22:18;;;;;;;31.63;23.45;;;4.50;99.90;;;;;;4941374;28;88928;-33
2022/03/13 06:24:43;;;;;;;27.17;24.42;;;4.50;99.90;;;;;;4922868;28;90770;-36
2022/03/13 06:27:10;;;;;;;30.55;24.73;;;4.50;99.90;;;;;;4941715;28;90887;-33
2022/03/13 06:29:37;;;;;;;31.13;24.85;;;4.50;99.90;;;;;;4923844;28;89507;-31
2022/03/13 06:32:03;;;;;;;28.08;25.10;;;4.60;99.90;;;;;;4941280;28;90280;-35
2022/03/13 06:34:29;;;;;;;28.98;23.00;;;4.60;99.90;;;;;;4941325;28;91609;-33
2022/03/13 06:36:55;;;;;;;28.80;24.25;;;4.60;99.90;;;;;;4940658;28;89973;-32
2022/03/13 06:39:21;;;;;;;31.42;23.73;;;4.60;99.90;;;;;;4941377;28;88188;-32
2022/03/13 06:41:47;;;;;;;28.92;24.55;;;4.60;99.90;;;;;;4940942;28;90598;-33
2022/03/13 06:44:13;;;;;;;23.33;19.20;;;4.70;99.90;;;;;;4941077;28;89077;-32
2022/03/13 06:46:39;;;;;;;27.75;22.60;;;4.80;99.90;;;;;;4941458;28;88831;-31
2022/03/13 06:49:05;;;;;;;28.05;22.52;;;4.90;99.90;;;;;;4940183;28;88582;-33
2022/03/13 06:51:32;;;;;;;23.55;21.13;;;4.90;99.90;;;;;;4941250;28;89522;-33
2022/03/13 06:53:58;;;;;;;25.02;21.65;;;4.90;99.90;;;;;;4940626;28;89375;-32
2022/03/13 06:56:24;;;;;;;28.63;24.50;;;5.00;99.90;;;;;;4940988;28;89580;-34
2022/03/13 06:58:50;;;;;;;32.13;19.38;;;5.10;99.90;;;;;;4941229;28;88849;-34
2022/03/13 07:01:15;;;;;;;24.80;22.08;;;5.20;99.90;;;;;;4940372;28;90180;-31
2022/03/13 07:03:42;;;;;;;31.50;22.73;;;5.30;99.90;;;;;;4940219;28;89670;-36
2022/03/13 07:06:07;;;;;;;29.02;23.10;;;5.30;99.90;;;;;;4941360;28;89562;-31
2022/03/13 07:08:33;;;;;;;28.63;20.92;;;5.50;99.90;;;;;;4940409;28;89300;-32
2022/03/13 07:11:01;;;;;;;26.73;20.55;;;5.60;99.90;;;;;;4940725;28;91958;-31
2022/03/13 07:13:31;;;;;;;27.13;22.02;;;5.70;99.90;;;;;;4940140;28;92601;-32
2022/03/13 07:16:01;;;;;;;25.05;19.85;;;5.80;99.90;;;;;;4940741;28;90431;-32
2022/03/13 07:18:27;;;;;;;28.13;22.05;;;5.80;99.90;;;;;;4923902;28;89758;-31
2022/03/13 07:20:53;;;;;;;23.40;19.83;;;5.80;99.90;;;;;;4940086;28;89766;-33
2022/03/13 07:23:18;;;;;;;25.33;20.75;;;5.90;99.90;;;;;;4940548;28;89502;-31
2022/03/13 07:25:44;;;;;;;27.63;20.60;;;5.90;99.90;;;;;;4940615;28;91110;-33
2022/03/13 07:28:09;;;;;;;29.13;21.30;;;5.90;99.90;;;;;;4940879;28;88652;-32
2022/03/13 07:30:35;;;;;;;27.65;22.35;;;5.90;99.90;;;;;;4940515;28;90809;-32
2022/03/13 07:33:01;;;;;;;28.77;22.15;;;6.00;99.90;;;;;;4939983;28;89507;-33
2022/03/13 07:35:27;;;;;;;23.27;19.15;;;6.00;99.90;;;;;;4940574;28;89473;-33
2022/03/13 07:37:53;;;;;;;24.95;20.55;;;6.10;99.90;;;;;;4939382;28;90191;-31
2022/03/13 07:40:19;;;;;;;29.13;21.48;;;6.20;99.90;;;;;;4939879;28;90323;-34
2022/03/13 07:42:44;;;;;;;25.63;21.13;;;6.30;99.90;;;;;;4921462;28;89599;-33
2022/03/13 07:45:10;;;;;;;23.98;20.77;;;6.30;99.90;;;;;;4940160;28;88505;-34
2022/03/13 07:47:36;;;;;;;32.78;20.35;;;6.40;99.90;;;;;;4940259;28;88550;-35
2022/03/13 07:50:02;;;;;;;24.35;20.30;;;6.40;99.90;;;;;;4940033;28;90888;-32
2022/03/13 07:52:27;;;;;;;27.35;21.23;;;6.50;99.90;;;;;;4939979;28;89684;-33
2022/03/13 07:54:53;;;;;;;25.20;21.42;;;6.60;99.90;;;;;;4940133;28;89511;-33
2022/03/13 07:57:19;;;;;;;26.08;22.85;;;6.70;99.90;;;;;;4940130;28;89905;-35
2022/03/13 07:59:47;;;;;;;24.55;21.10;;;6.80;99.90;;;;;;4939740;28;90291;-33
2022/03/13 08:02:14;;;;;;;;;;;6.90;99.90;;;;;;4939512;28;90572;-33
2022/03/13 08:04:40;;;;;;;23.27;19.42;;;7.10;99.90;;;;;;4941019;28;90287;-32
2022/03/13 08:07:05;;;;;;;24.73;18.20;;;7.30;99.90;;;;;;4940594;28;89029;-35
2022/03/13 08:09:31;;;;;;;21.70;17.60;;;7.50;99.90;;;;;;4939746;28;90339;-34
2022/03/13 08:11:57;;;;;;;22.10;18.92;;;7.60;99.90;;;;;;4939296;28;89460;-32
2022/03/13 08:14:22;;;;;;;23.02;18.50;;;7.80;99.90;;;;;;4939993;28;89801;-30
2022/03/13 08:16:48;;;;;;;25.95;21.20;;;7.90;99.90;;;;;;4939485;28;88608;-34
2022/03/13 08:19:14;;;;;;;21.17;18.75;;;8.10;99.90;;;;;;4939651;28;90038;-35
2022/03/13 08:21:41;;;;;;;30.92;19.08;;;8.20;99.90;;;;;;4939294;28;90202;-31
2022/03/13 08:24:07;;;;;;;23.30;17.70;;;8.40;97.60;;;;;;4939434;28;89728;-33
2022/03/13 08:26:38;;;;;;;22.35;17.42;;;8.70;93.90;;;;;;4939589;28;90700;-33
2022/03/13 08:29:05;;;;;;;19.98;16.80;;;8.80;90.00;;;;;;4939942;28;89976;-32
2022/03/13 08:31:31;;;;;;;26.10;19.60;;;8.90;92.00;;;;;;4939795;28;89873;-32
2022/03/13 08:33:57;;;;;;;24.88;19.13;;;9.00;91.80;;;;;;4938854;28;89424;-33
2022/03/13 08:36:22;;;;;;;18.67;16.40;;;9.10;87.20;;;;;;4940074;28;87818;-34
2022/03/13 08:38:48;;;;;;;24.58;18.65;;;9.10;83.30;;;;;;4938818;28;90038;-35
2022/03/13 08:41:13;;;;;;;26.25;18.13;;;9.20;81.90;;;;;;4939315;28;89398;-32
2022/03/13 08:43:39;;;;;;;26.30;19.40;;;9.30;84.20;;;;;;4939575;28;89514;-33
2022/03/13 08:46:05;;;;;;;23.92;18.13;;;9.40;83.10;;;;;;4939574;28;88147;-33
2022/03/13 08:48:30;;;;;;;20.70;18.45;;;9.50;81.60;;;;;;4939639;28;90354;-32
2022/03/13 08:50:57;;;;;;;23.90;18.35;;;9.60;80.00;;;;;;4938134;28;90675;-34
2022/03/13 08:53:23;;;;;;;27.38;17.85;;;9.80;80.10;;;;;;4938647;28;90802;-35
2022/03/13 08:55:49;;;;;;;21.05;17.05;;;10.00;73.70;;;;;;4924692;28;89436;-33
2022/03/13 08:58:14;;;;;;;20.98;18.50;;;10.20;69.00;;;;;;4945147;28;90227;-32
2022/03/13 09:00:40;;;;;;;22.90;17.77;;;10.20;71.40;;;;;;4949008;28;89932;-33
2022/03/13 09:03:07;;;;;;;27.70;17.67;;;10.30;70.20;;;;;;4958688;28;89986;-31
2022/03/13 09:05:33;;;;;;;18.58;16.27;;;10.50;68.00;;;;;;4960105;28;89431;-35
2022/03/13 09:07:58;;;;;;;20.45;17.17;;;10.60;68.10;;;;;;4960286;28;90305;-34
2022/03/13 09:10:24;;;;;;;17.30;14.82;;;10.70;66.20;;;;;;4959911;28;89280;-35
2022/03/13 09:12:50;;;;;;;22.55;17.63;;;10.90;64.80;;;;;;4960489;28;89686;-30
2022/03/13 09:15:15;;;;;;;21.95;16.67;;;10.90;65.10;;;;;;4959084;28;89804;-33
2022/03/13 09:17:41;;;;;;;18.88;16.23;;;11.00;65.70;;;;;;4959686;28;90575;-32
2022/03/13 09:20:07;;;;;;;25.92;17.45;;;11.10;66.20;;;;;;4959513;28;89726;-32
2022/03/13 09:22:35;;;;;;;22.05;16.42;;;11.20;64.80;;;;;;4959703;28;89814;-33
2022/03/13 09:25:01;;;;;;;17.98;15.30;;;11.30;63.90;;;;;;4959872;28;89031;-33
2022/03/13 09:27:29;;;;;;;20.05;17.27;;;11.50;63.10;;;;;;4959552;28;90278;-32
2022/03/13 09:29:57;;;;;;;21.85;18.17;;;11.60;62.70;;;;;;4947292;28;89383;-35
2022/03/13 09:32:23;;;;;;;19.07;16.97;;;11.70;62.40;;;;;;4929944;28;89209;-36
2022/03/13 09:34:50;;;;;;;18.88;16.42;;;11.80;61.80;;;;;;4937435;28;89288;-33
2022/03/13 09:37:16;;;;;;;23.02;17.83;;;11.90;61.50;;;;;;4939717;28;90323;-33
2022/03/13 09:39:42;;;;;;;18.58;16.73;;;12.00;62.30;;;;;;4934811;28;90805;-32
2022/03/13 09:42:08;;;;;;;26.23;16.55;;;12.10;62.40;;;;;;4929907;28;90099;-31
2022/03/13 09:44:33;;;;;;;18.60;14.48;;;12.30;62.40;;;;;;4928745;28;89296;-33
2022/03/13 09:46:59;;;;;;;20.90;16.58;;;12.50;61.10;;;;;;4910481;28;90637;-35
2022/03/13 09:49:27;;;;;;;18.83;15.70;;;12.50;61.10;;;;;;4920547;28;89951;-35
2022/03/13 09:51:52;;;;;;;20.93;14.30;;;12.60;60.10;;;;;;4938991;28;89563;-37
2022/03/13 09:54:18;;;;;;;21.85;15.82;;;12.60;59.60;;;;;;4959349;28;89381;-34
2022/03/13 09:56:43;;;;;;;25.00;18.50;;;12.60;59.50;;;;;;4958677;28;90311;-32
2022/03/13 09:59:09;;;;;;;18.17;16.15;;;12.60;59.40;;;;;;4959742;28;89800;-32
2022/03/13 10:01:35;;;;;;;20.98;16.40;;;12.70;60.00;;;;;;4958901;28;90126;-36
2022/03/13 10:04:02;;;;;;;25.23;15.23;;;12.80;59.50;;;;;;4958649;28;89067;-33
2022/03/13 10:06:29;;;;;;;22.77;16.10;;;13.00;58.90;;;;;;4958620;28;90623;-37
2022/03/13 10:08:54;;;;;;;19.10;16.95;;;13.10;58.90;;;;;;4959184;28;89959;-35
2022/03/13 10:11:33;;;;;;;17.63;14.90;;;13.20;59.50;;;;;;4958337;28;89433;-36
2022/03/13 10:14:07;;;;;;;25.90;18.30;;;13.40;58.80;;;;;;4958403;28;89903;-37
2022/03/13 10:16:37;;;;;;;30.88;16.75;;;13.50;57.70;;;;;;4958456;28;90029;-35
2022/03/13 10:19:16;;;;;;;17.95;16.13;;;13.70;58.00;;;;;;4958868;28;92040;-32
2022/03/13 10:22:01;;;;;;;25.60;15.40;;;13.80;57.20;;;;;;4959226;28;89432;-32
2022/03/13 10:24:27;;;;;;;18.77;16.73;;;13.90;56.50;;;;;;4957947;28;88117;-34
2022/03/13 10:27:12;;;;;;;22.13;16.55;;;13.80;56.70;;;;;;4958427;28;90492;-35
2022/03/13 10:29:38;;;;;;;19.13;16.45;;;13.80;57.20;;;;;;4957983;28;91868;-35
2022/03/13 10:32:05;;;;;;;18.50;14.50;;;13.80;56.00;;;;;;4958354;28;91660;-36
2022/03/13 10:34:32;;;;;;;16.98;14.27;;;13.70;55.60;;;;;;4959188;28;88928;-35
2022/03/13 10:36:57;;;;;;;19.75;15.00;;;13.60;56.20;;;;;;4958291;28;90376;-34
2022/03/13 10:39:23;;;;;;;20.25;17.85;;;13.60;55.40;;;;;;4958198;28;89609;-32
2022/03/13 10:41:53;;;;;;;22.08;15.60;;;13.60;55.40;;;;;;4958621;28;89674;-32
2022/03/13 10:44:25;;;;;;;21.67;16.48;;;13.60;55.70;;;;;;4958438;28;88442;-34
2022/03/13 10:46:58;;;;;;;17.30;14.60;;;13.60;54.70;;;;;;4959208;28;90349;-33
2022/03/13 10:49:44;;;;;;;23.13;16.58;;;13.50;55.50;;;;;;4958718;28;89624;-35
2022/03/13 10:52:45;;;;;;;26.30;17.10;;;13.60;56.20;;;;;;4958401;28;90576;-34
2022/03/13 10:55:24;;;;;;;19.63;16.25;;;13.90;55.10;;;;;;4957869;28;88785;-31
2022/03/13 10:57:54;;;;;;;21.65;16.77;;;14.00;54.10;;;;;;4957952;28;91501;-33
2022/03/13 11:00:21;;;;;;;20.35;17.27;;;14.00;54.90;;;;;;4958421;28;89668;-34
2022/03/13 11:02:48;;;;;;;22.45;15.38;;;14.10;54.50;;;;;;4957756;28;89497;-32
2022/03/13 11:05:14;;;;;;;20.95;16.08;;;14.30;54.80;;;;;;4958150;28;88749;-34
2022/03/13 11:07:39;;;;;;;23.65;16.10;;;14.30;55.30;;;;;;4957555;28;89995;-33
2022/03/13 11:10:07;;;;;;;20.90;17.05;;;14.30;55.00;;;;;;4957692;28;90400;-34
2022/03/13 11:12:34;;;;;;;22.17;17.50;;;14.30;54.00;;;;;;4958539;28;89470;-32
2022/03/13 11:15:01;;;;;;;18.08;14.02;;;14.10;55.30;;;;;;4958447;28;88588;-35
2022/03/13 11:17:30;;;;;;;20.63;16.35;;;14.20;54.20;;;;;;4938690;28;90779;-32
2022/03/13 11:19:58;;;;;;;21.83;18.17;;;14.10;55.00;;;;;;4956478;28;90154;-32
2022/03/13 11:22:24;;;;;;;20.47;15.43;;;14.00;55.00;;;;;;4957758;28;90459;-32
2022/03/13 11:25:00;;;;;;;21.42;16.88;;;14.10;54.50;;;;;;4957865;28;89084;-33
2022/03/13 11:27:26;;;;;;;23.65;16.83;;;14.00;56.10;;;;;;4957603;28;90147;-36
2022/03/13 11:29:54;;;;;;;27.95;18.05;;;14.10;54.90;;;;;;4957419;28;89542;-34
2022/03/13 11:32:33;;;;;;;21.13;17.17;;;14.10;54.30;;;;;;4957929;28;89009;-33
2022/03/13 11:35:11;;;;;;;22.10;18.10;;;14.10;54.70;;;;;;4957759;28;89705;-34
2022/03/13 11:37:37;;;;;;;;;;;14.30;52.70;;;;;;4958652;28;90240;-34
2022/03/13 11:40:05;;;;;;;23.42;19.40;;;14.30;51.60;;;;;;4959290;28;88991;-35
2022/03/13 11:42:56;;;;;;;20.93;17.07;;;14.30;52.70;;;;;;4957463;28;90319;-36
2022/03/13 11:45:28;;;;;;;22.42;18.33;;;14.20;53.00;;;;;;4956847;28;89848;-33
2022/03/13 11:48:16;;;;;;;20.48;17.35;;;14.20;53.70;;;;;;4957065;28;90420;-33
2022/03/13 11:50:54;;;;;;;25.23;17.67;;;14.30;52.80;;;;;;4956109;28;89590;-33
2022/03/13 11:53:25;;;;;;;26.33;16.17;;;14.50;51.70;;;;;;4957654;28;90054;-33
2022/03/13 11:56:02;;;;;;;21.20;16.90;;;14.50;51.50;;;;;;4956904;28;88888;-32
2022/03/13 11:58:51;;;;;;;19.53;17.50;;;14.60;51.90;;;;;;4957492;28;90106;-35
2022/03/13 12:01:37;;;;;;;20.13;16.60;;;14.80;51.80;;;;;;4957428;28;89476;-35
2022/03/13 12:04:14;;;;;;;20.98;17.60;;;15.00;50.50;;;;;;4957548;28;89510;-35
2022/03/13 12:06:55;;;;;;;18.70;14.50;;;15.10;50.00;;;;;;4957237;28;89250;-37
2022/03/13 12:09:28;;;;;;;19.27;15.40;;;15.30;50.20;;;;;;4957352;28;90512;-36
2022/03/13 12:11:56;;;;;;;23.10;17.55;;;15.30;49.80;;;;;;4989667;22;91747;-31
2022/03/13 12:14:42;;;;;;;;;;;15.40;48.60;;;;;;4940096;28;90339;-35
2022/03/13 12:17:08;;;;;;;19.83;16.30;;;15.40;48.40;;;;;;4959461;28;89697;-32
2022/03/13 12:19:40;;;;;;;20.08;17.02;;;15.50;49.40;;;;;;4957870;28;90483;-35
2022/03/13 12:22:06;;;;;;;19.13;16.42;;;15.70;47.10;;;;;;4957268;28;89413;-31
2022/03/13 12:24:33;;;;;;;18.50;14.95;;;15.70;48.20;;;;;;4957309;28;89498;-33
2022/03/13 12:27:04;;;;;;;19.48;16.10;;;15.60;48.70;;;;;;4957563;28;89439;-32
2022/03/13 12:29:32;;;;;;;19.10;16.83;;;15.70;48.00;;;;;;4954621;28;90195;-34
2022/03/13 12:31:59;;;;;;;19.65;15.02;;;15.70;48.10;;;;;;4947707;28;90252;-32
2022/03/13 12:34:31;;;;;;;19.52;15.25;;;15.60;48.60;;;;;;4947288;28;88087;-32
2022/03/13 12:37:02;;;;;;;19.42;17.42;;;15.60;48.30;;;;;;4942165;28;89627;-35
2022/03/13 12:39:29;;;;;;;21.58;16.10;;;15.60;48.50;;;;;;4937852;28;90384;-33
2022/03/13 12:42:04;;;;;;;21.17;16.70;;;15.60;49.50;;;;;;4937624;28;89940;-32